Time;durP1;ratioP1;P1;durP2;ratioP2;P2;SDS_P1;SDS_P2;PMS_P1;PMS_P2;Temp;Humidity;BMP_temperature;BMP_pressure;BME280_temperature;BME280_humidity;BME280_pressure;Samples;Min_cycle;Max_cycle;Signal;HPM_P1;HPM_P2
2023/05/16 00:01:49;;;;;;;17.90;3.22;;;8.70;99.90;;;;;;4975045;28;20077;-58
2023/05/16 00:04:16;;;;;;;16.20;3.20;;;8.60;99.90;;;;;;4973739;28;20068;-57
2023/05/16 00:06:42;;;;;;;18.23;2.95;;;8.70;99.90;;;;;;4975113;28;20505;-57
2023/05/16 00:09:08;;;;;;;16.77;3.05;;;8.60;99.90;;;;;;4962360;28;20054;-57
2023/05/16 00:11:33;;;;;;;13.25;2.83;;;8.60;99.90;;;;;;4976729;28;20078;-57
2023/05/16 00:14:00;;;;;;;25.77;3.38;;;8.60;99.90;;;;;;4975302;28;20043;-57
2023/05/16 00:16:28;;;;;;;14.95;2.67;;;8.60;99.90;;;;;;4972237;28;20046;-57
2023/05/16 00:18:56;;;;;;;13.10;3.03;;;8.60;99.90;;;;;;4974699;28;20066;-56
2023/05/16 00:21:22;;;;;;;16.60;3.05;;;8.60;99.90;;;;;;4971457;28;20058;-56
2023/05/16 00:23:48;;;;;;;16.60;2.78;;;8.60;99.90;;;;;;4975828;28;20129;-58
2023/05/16 00:26:14;;;;;;;19.27;3.72;;;8.50;99.90;;;;;;4972980;28;20061;-58
2023/05/16 00:28:39;;;;;;;22.13;3.08;;;8.60;99.90;;;;;;4950421;28;20440;-57
2023/05/16 00:31:05;;;;;;;15.70;3.15;;;8.50;99.90;;;;;;4975351;28;20769;-57
2023/05/16 00:33:31;;;;;;;17.27;2.92;;;8.50;99.90;;;;;;4976039;28;20060;-57
2023/05/16 00:35:57;;;;;;;13.27;2.80;;;8.50;99.90;;;;;;4973731;28;20117;-57
2023/05/16 00:38:25;;;;;;;13.32;2.58;;;8.40;99.90;;;;;;4971904;28;20490;-56
2023/05/16 00:40:51;;;;;;;19.73;3.30;;;8.40;99.90;;;;;;4976274;28;20046;-57
2023/05/16 00:43:16;;;;;;;19.23;3.13;;;8.40;99.90;;;;;;4972908;28;20043;-57
2023/05/16 00:45:43;;;;;;;17.10;2.50;;;8.40;99.90;;;;;;4973436;28;20050;-57
2023/05/16 00:48:11;;;;;;;12.88;2.40;;;8.40;99.90;;;;;;4962014;28;20042;-57
2023/05/16 00:50:37;;;;;;;14.02;2.60;;;8.40;99.90;;;;;;4956299;28;20044;-57
2023/05/16 00:53:03;;;;;;;12.65;2.42;;;8.30;99.90;;;;;;4978064;28;20054;-56
2023/05/16 00:55:29;;;;;;;14.23;2.42;;;8.30;99.90;;;;;;4969534;28;20519;-57
2023/05/16 00:57:57;;;;;;;17.50;2.70;;;8.30;99.90;;;;;;4973973;28;20054;-56
2023/05/16 01:00:23;;;;;;;12.40;2.33;;;8.30;99.90;;;;;;4972762;28;20053;-57
2023/05/16 01:02:52;;;;;;;13.80;2.88;;;8.20;99.90;;;;;;4957839;28;20054;-57
2023/05/16 01:05:19;;;;;;;14.15;3.05;;;8.10;99.90;;;;;;4969179;28;20050;-57
2023/05/16 01:07:45;;;;;;;13.80;2.78;;;8.10;99.90;;;;;;4975087;28;20505;-57
2023/05/16 01:10:11;;;;;;;20.40;2.30;;;8.10;99.90;;;;;;4973337;28;20070;-57
2023/05/16 01:12:52;;;;;;;11.55;2.45;;;8.10;99.90;;;;;;4970388;28;20043;-56
2023/05/16 01:15:27;;;;;;;13.13;2.22;;;8.00;99.90;;;;;;4965645;28;20077;-55
2023/05/16 01:17:59;;;;;;;18.55;2.92;;;8.00;99.90;;;;;;4971840;28;20137;-57
2023/05/16 01:20:58;;;;;;;15.23;2.17;;;8.00;99.90;;;;;;4969420;28;20039;-57
2023/05/16 01:23:53;;;;;;;20.45;2.80;;;7.90;99.90;;;;;;4963681;28;20583;-57
2023/05/16 01:26:21;;;;;;;16.10;2.67;;;7.90;99.90;;;;;;4948453;28;20120;-56
2023/05/16 01:28:48;;;;;;;10.52;2.40;;;7.90;99.90;;;;;;4964805;28;20181;-57
2023/05/16 01:31:15;;;;;;;12.63;2.67;;;7.80;99.90;;;;;;4962781;28;20051;-57
2023/05/16 01:33:41;;;;;;;12.43;2.63;;;7.80;99.90;;;;;;4965535;28;20909;-56
2023/05/16 01:36:13;;;;;;;18.55;2.30;;;7.80;99.90;;;;;;4967136;28;20053;-55
2023/05/16 01:38:44;;;;;;;15.93;2.70;;;7.80;99.90;;;;;;4963171;28;20125;-56
2023/05/16 01:41:22;;;;;;;10.38;1.88;;;7.80;99.90;;;;;;4967955;28;20061;-57
2023/05/16 01:43:54;;;;;;;11.75;2.42;;;7.90;99.90;;;;;;4964666;28;20035;-57
2023/05/16 01:46:25;;;;;;;12.87;2.00;;;7.80;99.90;;;;;;4965018;28;20132;-57
2023/05/16 01:48:57;;;;;;;15.43;2.58;;;7.80;99.90;;;;;;4964949;28;20073;-57
2023/05/16 01:51:29;;;;;;;16.08;2.47;;;7.80;99.90;;;;;;4967139;28;20851;-57
2023/05/16 01:54:03;;;;;;;12.38;2.25;;;7.70;99.90;;;;;;4950567;28;20051;-57
2023/05/16 01:56:30;;;;;;;11.68;2.55;;;7.70;99.90;;;;;;4949422;28;20039;-57
2023/05/16 01:58:57;;;;;;;10.73;2.40;;;7.70;99.90;;;;;;4958874;28;20066;-57
2023/05/16 02:01:24;;;;;;;8.98;2.20;;;7.70;99.90;;;;;;4947959;28;20050;-57
2023/05/16 02:03:50;;;;;;;21.50;2.70;;;7.70;99.90;;;;;;4966356;28;20067;-58
2023/05/16 02:06:16;;;;;;;14.27;2.97;;;7.60;99.90;;;;;;4966100;28;20437;-55
2023/05/16 02:08:42;;;;;;;13.75;2.35;;;7.60;99.90;;;;;;4964709;28;20042;-56
2023/05/16 02:11:07;;;;;;;15.07;2.90;;;7.60;99.90;;;;;;4965686;28;20050;-56
2023/05/16 02:13:33;;;;;;;12.90;2.50;;;7.60;99.90;;;;;;4957827;28;20763;-57
2023/05/16 02:15:59;;;;;;;15.45;3.15;;;7.60;99.90;;;;;;4963570;28;20153;-57
2023/05/16 02:18:27;;;;;;;12.95;2.35;;;7.60;99.90;;;;;;4950360;28;20049;-56
2023/05/16 02:20:52;;;;;;;13.43;2.67;;;7.60;99.90;;;;;;4966442;28;20046;-56
2023/05/16 02:23:18;;;;;;;9.38;2.17;;;7.60;99.90;;;;;;4965763;28;20153;-57
2023/05/16 02:25:44;;;;;;;16.10;2.83;;;7.60;99.90;;;;;;4946963;28;20042;-56
2023/05/16 02:28:10;;;;;;;21.23;2.90;;;7.60;99.90;;;;;;4967252;28;20085;-56
2023/05/16 02:30:35;;;;;;;19.33;3.83;;;7.70;99.90;;;;;;4965785;28;20050;-55
2023/05/16 02:33:01;;;;;;;14.40;2.58;;;7.70;99.90;;;;;;4965454;28;20869;-56
2023/05/16 02:35:27;;;;;;;11.70;2.25;;;7.70;99.90;;;;;;4959613;28;20077;-57
2023/05/16 02:37:52;;;;;;;18.85;2.72;;;7.70;99.90;;;;;;4964974;28;20126;-57
2023/05/16 02:40:18;;;;;;;16.27;2.88;;;7.70;99.90;;;;;;4964589;28;20073;-56
2023/05/16 02:42:44;;;;;;;18.80;2.90;;;7.70;99.90;;;;;;4963233;28;20136;-57
2023/05/16 02:45:10;;;;;;;11.55;2.53;;;7.70;99.90;;;;;;4969536;28;20125;-57
2023/05/16 02:47:35;;;;;;;21.35;3.38;;;7.70;99.90;;;;;;4957924;28;20042;-57
2023/05/16 02:50:02;;;;;;;20.85;3.15;;;7.60;99.90;;;;;;4963126;28;20169;-57
2023/05/16 02:52:28;;;;;;;11.52;2.55;;;7.70;99.90;;;;;;4947688;28;21953;-57
2023/05/16 02:54:54;;;;;;;22.58;2.67;;;7.60;99.90;;;;;;4962172;28;20149;-57
2023/05/16 02:57:20;;;;;;;13.52;2.28;;;7.60;99.90;;;;;;4966497;28;20509;-57
2023/05/16 02:59:46;;;;;;;17.05;2.88;;;7.60;99.90;;;;;;4964086;28;20040;-56
2023/05/16 03:02:12;;;;;;;18.77;2.60;;;7.60;99.90;;;;;;4962336;28;20150;-56
2023/05/16 03:04:38;;;;;;;13.48;3.00;;;7.60;99.90;;;;;;4964986;28;20133;-56
2023/05/16 03:07:04;;;;;;;13.68;2.83;;;7.60;99.90;;;;;;4950641;28;20498;-56
2023/05/16 03:09:30;;;;;;;20.98;3.25;;;7.70;99.90;;;;;;4964608;28;20043;-57
2023/05/16 03:11:55;;;;;;;22.85;3.40;;;7.70;99.90;;;;;;4945338;28;20042;-56
2023/05/16 03:14:21;;;;;;;22.40;3.63;;;7.70;99.90;;;;;;4966510;28;20035;-56
2023/05/16 03:16:47;;;;;;;13.18;2.78;;;7.70;99.90;;;;;;4948642;28;20046;-57
2023/05/16 03:19:13;;;;;;;13.70;3.05;;;7.70;99.90;;;;;;4959775;28;20130;-57
2023/05/16 03:21:38;;;;;;;16.20;3.15;;;7.60;99.90;;;;;;4962346;28;20493;-55
2023/05/16 03:24:05;;;;;;;10.80;2.30;;;7.60;99.90;;;;;;4948194;28;20072;-57
2023/05/16 03:26:31;;;;;;;14.88;2.45;;;7.60;99.90;;;;;;4947166;28;20528;-55
2023/05/16 03:28:56;;;;;;;14.18;2.95;;;7.60;99.90;;;;;;4948844;28;20046;-58
2023/05/16 03:31:22;;;;;;;8.93;2.38;;;7.50;99.90;;;;;;4957277;28;20053;-57
2023/05/16 03:33:48;;;;;;;14.75;2.53;;;7.50;99.90;;;;;;4953604;28;20042;-57
2023/05/16 03:36:13;;;;;;;10.82;2.35;;;7.50;99.90;;;;;;4938531;28;20050;-57
2023/05/16 03:38:39;;;;;;;10.55;2.17;;;7.40;99.90;;;;;;4963722;28;20034;-56
2023/05/16 03:41:05;;;;;;;21.60;3.08;;;7.40;99.90;;;;;;4952137;28;25877;-57
2023/05/16 03:43:31;;;;;;;15.70;3.20;;;7.30;99.90;;;;;;4945606;28;20038;-56
2023/05/16 03:45:56;;;;;;;17.73;2.80;;;7.40;99.90;;;;;;4935161;28;20065;-57
2023/05/16 03:48:22;;;;;;;14.48;2.65;;;7.40;99.90;;;;;;4949664;28;20046;-57
2023/05/16 03:50:48;;;;;;;15.02;2.28;;;7.40;99.90;;;;;;4960430;28;20050;-56
2023/05/16 03:53:14;;;;;;;11.27;2.50;;;7.40;99.90;;;;;;4956104;28;20086;-56
2023/05/16 03:55:40;;;;;;;18.92;3.13;;;7.40;99.90;;;;;;4961016;28;20054;-57
2023/05/16 03:58:06;;;;;;;12.00;2.30;;;7.30;99.90;;;;;;4955588;28;20054;-57
2023/05/16 04:00:33;;;;;;;9.75;2.60;;;7.30;99.90;;;;;;4947554;28;20504;-56
2023/05/16 04:02:59;;;;;;;17.08;3.47;;;7.30;99.90;;;;;;4948438;28;20054;-57
2023/05/16 04:05:24;;;;;;;15.15;2.67;;;7.30;99.90;;;;;;4962530;28;20465;-57
2023/05/16 04:07:50;;;;;;;15.27;2.92;;;7.30;99.90;;;;;;4963131;28;20054;-57
2023/05/16 04:10:16;;;;;;;15.05;2.28;;;7.20;99.90;;;;;;4961868;28;20059;-56
2023/05/16 04:12:43;;;;;;;15.90;2.50;;;7.30;99.90;;;;;;4963540;28;20051;-57
2023/05/16 04:15:09;;;;;;;11.45;2.10;;;7.20;99.90;;;;;;4960473;28;20050;-56
2023/05/16 04:17:35;;;;;;;12.48;2.47;;;7.30;99.90;;;;;;4963502;28;20047;-57
2023/05/16 04:20:03;;;;;;;16.45;3.00;;;7.30;99.90;;;;;;4961719;28;20101;-56
2023/05/16 04:22:28;;;;;;;16.30;2.72;;;7.30;99.90;;;;;;4960483;28;21898;-56
2023/05/16 04:24:54;;;;;;;17.13;2.78;;;7.30;99.90;;;;;;4959436;28;20121;-57
2023/05/16 04:27:20;;;;;;;13.45;2.40;;;7.30;99.90;;;;;;4945892;28;20043;-57
2023/05/16 04:29:46;;;;;;;12.20;2.50;;;7.30;99.90;;;;;;4964124;28;20042;-57
2023/05/16 04:32:11;;;;;;;15.90;2.63;;;7.30;99.90;;;;;;4964544;28;20074;-57
2023/05/16 04:34:37;;;;;;;10.30;2.15;;;7.30;99.90;;;;;;4964946;28;20041;-55
2023/05/16 04:37:04;;;;;;;14.63;2.15;;;7.40;99.90;;;;;;4950206;28;20048;-56
2023/05/16 04:39:31;;;;;;;13.98;2.60;;;7.40;99.90;;;;;;4969773;28;20046;-56
2023/05/16 04:42:00;;;;;;;18.15;2.45;;;7.40;99.90;;;;;;4967124;28;20050;-56
2023/05/16 04:44:26;;;;;;;13.35;2.50;;;7.40;99.90;;;;;;4957636;28;20380;-57
2023/05/16 04:46:52;;;;;;;13.05;2.28;;;7.50;99.90;;;;;;4942144;28;20070;-56
2023/05/16 04:49:19;;;;;;;14.35;2.63;;;7.40;99.90;;;;;;4964973;28;20081;-56
2023/05/16 04:51:45;;;;;;;11.00;2.28;;;7.50;99.90;;;;;;4969164;28;20104;-57
2023/05/16 04:54:11;;;;;;;11.10;2.30;;;7.50;99.90;;;;;;4960954;28;20525;-57
2023/05/16 04:56:38;;;;;;;19.20;3.03;;;7.60;99.90;;;;;;4967758;28;20046;-56
2023/05/16 04:59:03;;;;;;;15.20;2.20;;;7.60;99.90;;;;;;4967719;28;20046;-57
2023/05/16 05:01:29;;;;;;;14.50;2.30;;;7.70;99.90;;;;;;4964044;28;20112;-55
2023/05/16 05:03:55;;;;;;;16.48;2.28;;;7.70;99.90;;;;;;4963208;28;20425;-57
2023/05/16 05:06:21;;;;;;;13.32;2.47;;;7.80;99.90;;;;;;4953158;28;20382;-57
2023/05/16 05:08:47;;;;;;;14.20;2.20;;;7.80;99.90;;;;;;4967056;28;20065;-58
2023/05/16 05:11:13;;;;;;;14.00;2.40;;;7.90;99.90;;;;;;4965405;28;20482;-57
2023/05/16 05:13:38;;;;;;;14.52;2.35;;;7.90;99.90;;;;;;4966940;28;20043;-56
2023/05/16 05:16:04;;;;;;;12.60;2.33;;;7.90;99.90;;;;;;4924612;28;20108;-58
2023/05/16 05:18:31;;;;;;;11.95;2.30;;;8.00;99.90;;;;;;4960405;28;20043;-57
2023/05/16 05:20:57;;;;;;;17.45;2.17;;;8.00;99.90;;;;;;4960109;28;20171;-57
2023/05/16 05:23:23;;;;;;;11.30;2.25;;;8.10;99.90;;;;;;4965483;28;20405;-57
2023/05/16 05:25:49;;;;;;;17.55;2.65;;;8.10;99.90;;;;;;4968267;28;20162;-58
2023/05/16 05:28:15;;;;;;;12.40;2.63;;;8.20;99.90;;;;;;4965790;28;20089;-58
2023/05/16 05:30:41;;;;;;;13.15;2.40;;;8.30;99.90;;;;;;4948980;28;20137;-57
2023/05/16 05:33:07;;;;;;;10.65;1.92;;;8.40;99.90;;;;;;4965267;28;20057;-58
2023/05/16 05:35:32;;;;;;;16.30;2.33;;;8.40;99.90;;;;;;4969494;28;20042;-57
2023/05/16 05:37:58;;;;;;;14.07;2.67;;;8.60;99.90;;;;;;4964245;28;20053;-57
2023/05/16 05:40:24;;;;;;;16.50;2.28;;;8.60;99.90;;;;;;4964612;28;20042;-58
2023/05/16 05:42:50;;;;;;;11.50;2.25;;;8.70;99.90;;;;;;4936257;28;20930;-57
2023/05/16 05:45:16;;;;;;;16.17;1.98;;;8.70;99.90;;;;;;4948255;28;20046;-56
2023/05/16 05:47:42;;;;;;;9.38;2.13;;;8.70;99.90;;;;;;4967563;28;20058;-56
2023/05/16 05:50:10;;;;;;;11.82;2.70;;;8.90;99.90;;;;;;4959505;28;20137;-56
2023/05/16 05:52:37;;;;;;;9.68;1.90;;;9.00;99.90;;;;;;4962739;28;20073;-57
2023/05/16 05:55:03;;;;;;;15.35;2.30;;;9.10;99.90;;;;;;4913899;28;20122;-57
2023/05/16 05:57:28;;;;;;;12.13;2.08;;;9.10;99.90;;;;;;4947495;28;21255;-58
2023/05/16 05:59:54;;;;;;;17.70;2.22;;;9.20;99.90;;;;;;4965453;28;20203;-57
2023/05/16 06:02:20;;;;;;;13.15;2.03;;;9.30;99.90;;;;;;4964895;28;20038;-56
2023/05/16 06:04:46;;;;;;;13.38;2.78;;;9.30;99.90;;;;;;4945969;28;20062;-57
2023/05/16 06:07:11;;;;;;;6.90;1.95;;;9.40;99.90;;;;;;4939054;28;20161;-57
2023/05/16 06:09:37;;;;;;;17.27;2.42;;;9.40;99.90;;;;;;4934894;28;20038;-64
2023/05/16 06:12:03;;;;;;;12.07;2.00;;;9.50;99.90;;;;;;4961611;28;20058;-63
2023/05/16 06:14:29;;;;;;;12.05;1.80;;;9.50;99.90;;;;;;4940247;28;20038;-63
2023/05/16 06:16:55;;;;;;;13.48;2.15;;;9.60;99.90;;;;;;4933212;28;20045;-63
2023/05/16 06:19:21;;;;;;;12.55;1.80;;;9.60;99.90;;;;;;4951611;28;21046;-64
2023/05/16 06:21:46;;;;;;;9.32;1.77;;;9.70;99.90;;;;;;4956081;28;20052;-63
2023/05/16 06:24:12;;;;;;;14.52;1.55;;;9.70;99.90;;;;;;4968152;28;20050;-63
2023/05/16 06:26:38;;;;;;;7.72;1.60;;;9.60;99.90;;;;;;4941856;28;20507;-63
2023/05/16 06:29:04;;;;;;;6.32;1.42;;;9.60;99.90;;;;;;4941487;28;20050;-63
2023/05/16 06:31:30;;;;;;;8.95;1.63;;;9.60;99.90;;;;;;4951745;28;20046;-63
2023/05/16 06:33:56;;;;;;;9.00;1.73;;;9.70;99.90;;;;;;4960533;28;20042;-63
2023/05/16 06:36:22;;;;;;;7.57;1.70;;;9.80;99.90;;;;;;4956022;28;20046;-63
2023/05/16 06:38:49;;;;;;;7.28;1.77;;;9.80;99.90;;;;;;4956125;28;20648;-63
2023/05/16 06:41:15;;;;;;;13.13;1.73;;;9.90;99.90;;;;;;4956838;28;20034;-63
2023/05/16 06:43:41;;;;;;;12.15;1.75;;;10.00;99.90;;;;;;4953669;28;20049;-63
2023/05/16 06:46:07;;;;;;;9.95;1.98;;;10.10;99.90;;;;;;4958481;28;20085;-62
2023/05/16 06:48:32;;;;;;;9.65;1.63;;;10.20;99.90;;;;;;4942898;28;20048;-63
2023/05/16 06:50:58;;;;;;;10.32;1.67;;;10.20;99.90;;;;;;4946233;28;20501;-63
2023/05/16 06:53:24;;;;;;;5.32;1.30;;;10.30;99.90;;;;;;4947079;28;20054;-63
2023/05/16 06:55:50;;;;;;;7.90;1.45;;;10.40;99.90;;;;;;4963334;28;20093;-63
2023/05/16 06:58:16;;;;;;;8.25;1.73;;;10.40;99.90;;;;;;4961115;28;21003;-63
2023/05/16 07:00:42;;;;;;;8.40;1.65;;;10.50;99.90;;;;;;4940500;28;20042;-63
2023/05/16 07:03:08;;;;;;;9.35;1.67;;;10.50;99.90;;;;;;4943007;28;20054;-63
2023/05/16 07:05:34;;;;;;;12.77;1.88;;;10.60;99.90;;;;;;4953103;28;20098;-63
2023/05/16 07:08:00;;;;;;;8.77;1.67;;;10.60;99.90;;;;;;4949269;28;20054;-62
2023/05/16 07:10:26;;;;;;;11.82;1.67;;;10.70;99.90;;;;;;4937395;28;20045;-63
2023/05/16 07:12:52;;;;;;;16.90;1.92;;;10.80;99.90;;;;;;4956735;28;20046;-63
2023/05/16 07:15:17;;;;;;;9.40;1.60;;;10.90;99.90;;;;;;4945607;28;20047;-63
2023/05/16 07:17:43;;;;;;;12.38;1.75;;;11.00;99.90;;;;;;4943910;28;20133;-63
2023/05/16 07:20:12;;;;;;;15.38;2.30;;;11.10;99.90;;;;;;4953410;28;20142;-63
2023/05/16 07:22:38;;;;;;;12.50;2.42;;;11.10;99.90;;;;;;4941055;28;20227;-62
2023/05/16 07:25:05;;;;;;;13.48;1.90;;;11.10;99.90;;;;;;4946907;28;20043;-63
2023/05/16 07:27:31;;;;;;;12.73;2.00;;;11.10;99.90;;;;;;4959404;28;20177;-63
2023/05/16 07:29:57;;;;;;;11.70;2.10;;;11.10;99.90;;;;;;4964946;28;20129;-62
2023/05/16 07:32:22;;;;;;;12.80;2.47;;;11.10;99.90;;;;;;4938527;28;20038;-63
2023/05/16 07:34:48;;;;;;;10.73;1.92;;;11.10;99.90;;;;;;4955723;28;20038;-63
2023/05/16 07:37:15;;;;;;;13.60;2.00;;;11.20;99.90;;;;;;4964466;28;20050;-63
2023/05/16 07:39:41;;;;;;;9.68;1.63;;;11.20;99.90;;;;;;4942358;28;20049;-63
2023/05/16 07:42:07;;;;;;;12.23;2.25;;;11.10;99.90;;;;;;4946472;28;20090;-62
2023/05/16 07:44:34;;;;;;;14.30;2.03;;;11.00;99.90;;;;;;4955991;28;20652;-63
2023/05/16 07:47:00;;;;;;;11.93;2.20;;;11.00;99.90;;;;;;4955237;28;20101;-63
2023/05/16 07:49:26;;;;;;;11.65;2.25;;;11.10;99.90;;;;;;4932030;28;20409;-63
2023/05/16 07:51:52;;;;;;;11.55;1.80;;;11.30;99.90;;;;;;4953902;28;20058;-62
2023/05/16 07:54:17;;;;;;;12.85;2.00;;;11.40;99.90;;;;;;4952576;28;20047;-62
2023/05/16 07:56:43;;;;;;;12.30;2.22;;;11.40;99.90;;;;;;4929550;28;20039;-62
2023/05/16 07:59:09;;;;;;;11.25;2.10;;;11.40;99.90;;;;;;4952385;28;20067;-63
2023/05/16 08:01:36;;;;;;;17.15;2.33;;;11.40;99.90;;;;;;4942202;28;20092;-62
2023/05/16 08:04:02;;;;;;;10.27;2.00;;;11.40;99.90;;;;;;4943439;28;20061;-62
2023/05/16 08:06:28;;;;;;;15.27;2.05;;;11.50;99.90;;;;;;4955450;28;20042;-62
2023/05/16 08:08:55;;;;;;;13.23;1.80;;;11.70;99.90;;;;;;4961352;28;20050;-62
2023/05/16 08:11:21;;;;;;;12.38;2.03;;;11.90;99.90;;;;;;4955823;28;20397;-63
2023/05/16 08:13:47;;;;;;;6.28;1.73;;;11.90;99.90;;;;;;4960261;28;20109;-62
2023/05/16 08:16:13;;;;;;;9.70;1.80;;;11.70;99.90;;;;;;4952684;28;20038;-63
2023/05/16 08:18:39;;;;;;;7.28;1.70;;;11.50;99.90;;;;;;4959210;28;20500;-63
2023/05/16 08:21:05;;;;;;;5.60;0.95;;;11.30;99.90;;;;;;4956600;28;20054;-62
2023/05/16 08:23:31;;;;;;;8.57;1.85;;;11.30;99.90;;;;;;4960678;28;20053;-62
2023/05/16 08:25:57;;;;;;;8.30;1.92;;;11.30;99.90;;;;;;4937655;28;20050;-63
2023/05/16 08:28:23;;;;;;;12.30;2.22;;;11.40;99.90;;;;;;4949035;28;20034;-63
2023/05/16 08:30:49;;;;;;;12.30;2.05;;;11.60;99.90;;;;;;4942124;28;20050;-63
2023/05/16 08:33:15;;;;;;;11.80;1.85;;;11.70;99.90;;;;;;4958676;28;20046;-62
2023/05/16 08:35:45;;;;;;;14.10;2.72;;;11.90;99.90;;;;;;4975534;28;20034;-62
2023/05/16 08:38:11;;;;;;;12.90;2.17;;;12.10;99.90;;;;;;4966595;28;20039;-62
2023/05/16 08:40:37;;;;;;;9.00;1.98;;;12.30;99.90;;;;;;4956905;28;20054;-63
2023/05/16 08:43:04;;;;;;;13.15;2.53;;;12.40;99.90;;;;;;4963108;28;20050;-63
2023/05/16 08:45:30;;;;;;;10.25;1.77;;;12.30;99.90;;;;;;4957939;28;20057;-62
2023/05/16 08:47:59;;;;;;;9.25;1.90;;;12.20;99.90;;;;;;4958999;28;20046;-63
2023/05/16 08:50:28;;;;;;;17.17;2.33;;;12.10;99.90;;;;;;4962030;28;20417;-63
2023/05/16 08:52:53;;;;;;;13.35;2.28;;;12.20;99.90;;;;;;4959548;28;20050;-63
2023/05/16 08:55:21;;;;;;;15.10;2.08;;;12.30;99.90;;;;;;4958936;28;20061;-63
2023/05/16 08:57:48;;;;;;;13.18;2.00;;;12.50;99.90;;;;;;4959586;28;20114;-63
2023/05/16 09:00:15;;;;;;;10.70;1.92;;;12.80;99.90;;;;;;4957540;28;20041;-63
2023/05/16 09:02:43;;;;;;;9.15;1.63;;;12.90;99.90;;;;;;4954038;28;20041;-63
2023/05/16 09:05:11;;;;;;;8.65;1.77;;;12.90;99.90;;;;;;4957239;28;20065;-63
2023/05/16 09:07:37;;;;;;;13.20;2.42;;;12.80;99.90;;;;;;4958742;28;20621;-62
2023/05/16 09:10:05;;;;;;;7.10;1.70;;;12.80;99.90;;;;;;4943816;28;20115;-62
2023/05/16 09:12:32;;;;;;;12.40;2.20;;;13.00;99.90;;;;;;4954044;28;20047;-63
2023/05/16 09:15:01;;;;;;;10.30;2.03;;;13.10;99.90;;;;;;4952669;28;20043;-62
2023/05/16 09:17:43;;;;;;;11.82;1.80;;;13.00;99.90;;;;;;4952198;28;20120;-62
2023/05/16 09:20:19;;;;;;;9.10;2.30;;;13.00;99.90;;;;;;4959928;28;20501;-62
2023/05/16 09:22:51;;;;;;;11.13;1.88;;;13.20;99.90;;;;;;4957252;28;20061;-62
2023/05/16 09:25:17;;;;;;;12.38;2.10;;;13.40;99.90;;;;;;4961100;28;20039;-62
2023/05/16 09:27:46;;;;;;;9.77;1.50;;;13.30;99.90;;;;;;4957644;28;20051;-61
2023/05/16 09:30:20;;;;;;;8.93;1.60;;;13.20;99.90;;;;;;4954880;28;20554;-62
2023/05/16 09:32:45;;;;;;;6.45;1.25;;;13.00;99.90;;;;;;4956868;28;20110;-62
2023/05/16 09:35:16;;;;;;;7.68;1.80;;;12.70;99.90;;;;;;4956986;28;20042;-62
2023/05/16 09:37:49;;;;;;;7.20;1.63;;;12.60;99.90;;;;;;4958453;28;20051;-63
2023/05/16 09:40:15;;;;;;;12.85;2.03;;;12.80;99.90;;;;;;4941433;28;20449;-62
2023/05/16 09:42:45;;;;;;;13.13;2.00;;;13.00;99.90;;;;;;4954961;28;20611;-62
2023/05/16 09:45:13;;;;;;;8.98;1.98;;;13.30;99.90;;;;;;4957594;28;20043;-62
2023/05/16 09:47:45;;;;;;;7.78;1.77;;;13.60;99.90;;;;;;4945585;28;20069;-62
2023/05/16 09:50:13;;;;;;;11.50;1.90;;;13.70;99.90;;;;;;4939119;28;20049;-62
2023/05/16 09:52:40;;;;;;;7.93;2.08;;;13.90;99.90;;;;;;4938019;28;20043;-62
2023/05/16 09:55:07;;;;;;;15.32;2.67;;;13.80;99.90;;;;;;4951372;28;20141;-62
2023/05/16 09:57:37;;;;;;;14.32;2.03;;;13.70;99.90;;;;;;4956843;28;20058;-61
2023/05/16 10:00:10;;;;;;;13.43;2.25;;;13.60;99.90;;;;;;4951987;28;20046;-62
2023/05/16 10:02:38;;;;;;;17.25;2.33;;;13.80;99.90;;;;;;4937021;28;20039;-62
2023/05/16 10:05:04;;;;;;;10.73;2.30;;;14.00;99.90;;;;;;4967340;28;20065;-62
2023/05/16 10:07:32;;;;;;;11.75;2.53;;;14.00;99.90;;;;;;4958802;28;20038;-62
2023/05/16 10:10:03;;;;;;;8.70;1.65;;;14.00;99.90;;;;;;4945813;28;20046;-62
2023/05/16 10:12:30;;;;;;;8.55;1.80;;;14.00;99.90;;;;;;4963070;28;20503;-62
2023/05/16 10:14:56;;;;;;;13.30;2.05;;;13.80;99.90;;;;;;4955095;28;20402;-63
2023/05/16 10:17:26;;;;;;;11.93;2.40;;;13.70;99.90;;;;;;4961228;28;20034;-62
2023/05/16 10:19:53;;;;;;;9.38;2.17;;;13.70;99.90;;;;;;4958165;28;20047;-62
2023/05/16 10:22:20;;;;;;;12.30;1.88;;;14.00;99.90;;;;;;4960468;28;20046;-62
2023/05/16 10:24:59;;;;;;;12.27;1.95;;;14.10;99.90;;;;;;4955661;28;20046;-62
2023/05/16 10:27:26;;;;;;;11.20;2.08;;;14.30;99.90;;;;;;4968377;28;25033;-62
2023/05/16 10:29:52;;;;;;;12.57;2.03;;;14.40;99.60;;;;;;4955371;28;20082;-62
2023/05/16 10:32:19;;;;;;;11.45;1.70;;;14.40;99.00;;;;;;4941387;28;20058;-62
2023/05/16 10:34:45;;;;;;;10.35;1.83;;;14.30;98.80;;;;;;4947510;28;20053;-62
2023/05/16 10:37:11;;;;;;;8.07;1.20;;;14.20;99.10;;;;;;4953607;28;20477;-63
2023/05/16 10:39:38;;;;;;;11.20;2.42;;;14.40;98.90;;;;;;4959460;28;20053;-62
2023/05/16 10:42:05;;;;;;;9.20;1.58;;;14.60;98.60;;;;;;4944064;28;20397;-63
2023/05/16 10:44:35;;;;;;;9.90;1.63;;;14.70;98.40;;;;;;4953616;28;20391;-62
2023/05/16 10:47:03;;;;;;;13.18;1.73;;;14.70;97.90;;;;;;4942568;28;20066;-62
2023/05/16 10:49:30;;;;;;;9.50;1.63;;;14.70;98.10;;;;;;4952958;28;20046;-62
2023/05/16 10:52:12;;;;;;;10.10;1.85;;;14.50;97.80;;;;;;4957078;28;20051;-63
2023/05/16 10:54:39;;;;;;;10.75;1.80;;;14.60;98.00;;;;;;4958403;28;20066;-62
2023/05/16 10:57:10;;;;;;;7.40;1.45;;;14.80;97.70;;;;;;4963863;28;20050;-62
2023/05/16 10:59:50;;;;;;;14.98;2.05;;;14.80;97.00;;;;;;4972266;28;20393;-63
2023/05/16 11:02:38;;;;;;;4.93;1.67;;;14.60;96.70;;;;;;4970971;28;20334;-62
2023/05/16 11:05:06;;;;;;;8.50;1.85;;;14.70;96.80;;;;;;4951358;28;20059;-62
2023/05/16 11:07:34;;;;;;;11.65;1.73;;;14.70;96.70;;;;;;4946184;28;20043;-62
2023/05/16 11:10:09;;;;;;;9.80;1.75;;;14.90;96.40;;;;;;4955085;28;20030;-62
2023/05/16 11:12:44;;;;;;;8.60;1.90;;;15.10;96.50;;;;;;4952843;28;20039;-62
2023/05/16 11:15:25;;;;;;;11.65;1.60;;;15.20;96.20;;;;;;4931064;28;20154;-62
2023/05/16 11:18:07;;;;;;;10.10;1.85;;;15.20;95.40;;;;;;4945828;28;20056;-62
2023/05/16 11:20:38;;;;;;;9.43;1.70;;;15.20;95.00;;;;;;4954110;28;20042;-62
2023/05/16 11:23:15;;;;;;;7.15;1.70;;;15.10;93.90;;;;;;4949025;28;20078;-62
2023/05/16 11:25:44;;;;;;;10.23;2.17;;;14.90;93.40;;;;;;4951660;28;20039;-62
2023/05/16 11:28:12;;;;;;;6.97;1.50;;;14.80;93.90;;;;;;4951573;28;20513;-62
2023/05/16 11:30:54;;;;;;;8.50;2.20;;;14.60;94.20;;;;;;4950671;28;20050;-62
2023/05/16 11:33:21;;;;;;;19.55;2.35;;;14.40;94.70;;;;;;4933010;28;20089;-62
2023/05/16 11:36:21;;;;;;;13.48;2.35;;;14.20;95.80;;;;;;4950865;28;20043;-63
2023/05/16 11:38:46;;;;;;;9.13;2.20;;;14.00;97.10;;;;;;4914369;28;20043;-62
2023/05/16 11:41:14;;;;;;;12.68;2.08;;;13.90;98.20;;;;;;4938979;28;20051;-63
2023/05/16 11:43:44;;;;;;;9.23;1.92;;;14.00;98.10;;;;;;4956638;28;20043;-62
2023/05/16 11:46:11;;;;;;;12.70;2.28;;;14.00;98.10;;;;;;4949871;28;20134;-62
2023/05/16 11:48:37;;;;;;;12.75;1.88;;;14.00;97.90;;;;;;4952739;28;20106;-62
2023/05/16 11:51:03;;;;;;;9.63;2.50;;;14.00;97.40;;;;;;4950563;28;21101;-62
2023/05/16 11:53:29;;;;;;;11.02;2.50;;;14.30;98.20;;;;;;4946025;28;20046;-62
2023/05/16 11:55:55;;;;;;;11.95;2.63;;;14.50;97.80;;;;;;4954403;28;20075;-62
2023/05/16 11:58:21;;;;;;;11.77;2.72;;;14.60;97.50;;;;;;4935610;28;20046;-62
2023/05/16 12:00:49;;;;;;;14.70;2.50;;;14.50;97.30;;;;;;4949380;28;21806;-62
2023/05/16 12:03:16;;;;;;;14.43;2.67;;;14.60;97.40;;;;;;4950969;28;20051;-62
2023/05/16 12:05:53;;;;;;;6.57;2.50;;;14.60;96.70;;;;;;4949281;28;20460;-62
2023/05/16 12:08:24;;;;;;;11.57;2.60;;;14.60;96.90;;;;;;4952934;28;20532;-63
2023/05/16 12:10:50;;;;;;;10.18;2.90;;;14.60;97.40;;;;;;4953494;28;20073;-62
2023/05/16 12:13:17;;;;;;;11.18;2.45;;;14.60;97.60;;;;;;4950058;28;20047;-63
2023/05/16 12:15:43;;;;;;;8.18;2.50;;;14.60;97.50;;;;;;4948809;28;20498;-62
2023/05/16 12:18:10;;;;;;;9.05;2.90;;;14.50;97.50;;;;;;4952412;28;20126;-62
2023/05/16 12:20:36;;;;;;;10.45;2.67;;;14.40;97.50;;;;;;4941308;28;20043;-62
2023/05/16 12:23:03;;;;;;;11.18;2.40;;;14.30;97.90;;;;;;4952771;28;20050;-62
2023/05/16 12:25:40;;;;;;;12.40;2.65;;;14.30;97.70;;;;;;4953352;28;20055;-62
2023/05/16 12:28:07;;;;;;;12.23;3.00;;;14.30;97.60;;;;;;4954085;28;20086;-62
2023/05/16 12:30:33;;;;;;;10.13;2.72;;;14.30;98.10;;;;;;4944615;28;20042;-62
2023/05/16 12:33:00;;;;;;;15.30;3.17;;;14.30;98.30;;;;;;4940589;28;20692;-62
2023/05/16 12:35:31;;;;;;;9.05;2.55;;;14.30;98.30;;;;;;4951500;28;20409;-62
2023/05/16 12:37:56;;;;;;;10.27;2.85;;;14.20;98.30;;;;;;4953082;28;20035;-62
2023/05/16 12:40:22;;;;;;;10.80;3.10;;;14.10;98.60;;;;;;4947815;28;20133;-62
2023/05/16 12:42:53;;;;;;;8.68;3.03;;;14.00;99.00;;;;;;4948905;28;20038;-63
2023/05/16 12:45:18;;;;;;;14.35;3.50;;;13.80;99.90;;;;;;4954113;28;20050;-62